Time;durP1;ratioP1;P1;durP2;ratioP2;P2;SDS_P1;SDS_P2;PMS_P1;PMS_P2;Temp;Humidity;BMP_temperature;BMP_pressure;BME280_temperature;BME280_humidity;BME280_pressure;Samples;Min_cycle;Max_cycle;Signal;HPM_P1;HPM_P2
2021/07/27 00:00:46;;;;;;;178.33;73.20;;;17.40;99.90;;;;;;4360339;33;20145;-70
2021/07/27 00:03:14;;;;;;;192.13;73.77;;;17.40;99.90;;;;;;4360320;33;20172;-71
2021/07/27 00:05:41;;;;;;;135.67;61.63;;;17.40;99.90;;;;;;4360564;33;20149;-71
2021/07/27 00:08:08;;;;;;;177.10;69.17;;;17.50;99.90;;;;;;4360453;33;20203;-70
2021/07/27 00:10:37;;;;;;;216.00;74.33;;;17.50;99.90;;;;;;4360405;33;20145;-69
2021/07/27 00:13:04;;;;;;;174.00;69.83;;;17.50;99.90;;;;;;4360757;33;20145;-70
2021/07/27 00:15:31;;;;;;;170.97;67.10;;;17.60;99.90;;;;;;4360509;33;20159;-70
2021/07/27 00:17:58;;;;;;;138.10;62.13;;;17.60;99.90;;;;;;4360458;33;20147;-70
2021/07/27 00:20:29;;;;;;;119.97;57.43;;;17.60;99.90;;;;;;4360668;33;20159;-70
2021/07/27 00:22:55;;;;;;;154.50;63.60;;;17.60;99.90;;;;;;4360425;33;20141;-70
2021/07/27 00:25:22;;;;;;;95.30;48.93;;;17.60;99.90;;;;;;4360356;33;20148;-71
2021/07/27 00:27:49;;;;;;;125.77;55.57;;;17.50;99.90;;;;;;4360734;33;20167;-71
2021/07/27 00:30:16;;;;;;;95.10;49.23;;;17.50;99.90;;;;;;4361042;33;20171;-72
2021/07/27 00:32:44;;;;;;;114.03;53.93;;;17.40;99.90;;;;;;4360581;33;20141;-71
2021/07/27 00:35:13;;;;;;;84.57;45.23;;;17.50;99.90;;;;;;4360242;33;20156;-70
2021/07/27 00:37:44;;;;;;;140.67;60.93;;;17.50;99.90;;;;;;4360198;33;20179;-70
2021/07/27 00:40:12;;;;;;;97.20;49.07;;;17.40;99.90;;;;;;4360089;33;20471;-72
2021/07/27 00:42:44;;;;;;;92.27;47.83;;;17.50;99.90;;;;;;4360320;33;20171;-73
2021/07/27 00:45:12;;;;;;;149.57;59.27;;;17.50;99.90;;;;;;4360268;33;20137;-71
2021/07/27 00:47:39;;;;;;;116.03;53.63;;;17.50;99.90;;;;;;4361997;32;20195;-70
2021/07/27 00:50:07;;;;;;;108.33;51.17;;;17.50;99.90;;;;;;4362896;33;20164;-72
2021/07/27 00:52:34;;;;;;;90.33;47.83;;;17.60;99.90;;;;;;4362764;33;20141;-72
2021/07/27 00:55:03;;;;;;;163.70;62.47;;;17.60;99.90;;;;;;4363778;32;20578;-70
2021/07/27 00:57:32;;;;;;;105.87;50.27;;;17.50;99.90;;;;;;4362970;33;20223;-72
2021/07/27 00:59:59;;;;;;;104.20;48.93;;;17.40;99.90;;;;;;4363942;32;20187;-71
2021/07/27 01:02:29;;;;;;;83.23;45.90;;;17.40;99.90;;;;;;4363119;32;20153;-70
2021/07/27 01:04:56;;;;;;;83.97;45.63;;;17.30;99.90;;;;;;4363538;32;20460;-71
2021/07/27 01:07:24;;;;;;;91.90;46.73;;;17.30;99.90;;;;;;4363345;32;20156;-71
2021/07/27 01:09:52;;;;;;;84.23;45.27;;;17.20;99.90;;;;;;4364463;32;20141;-71
2021/07/27 01:12:24;;;;;;;90.50;46.00;;;17.20;99.90;;;;;;4363380;32;20635;-72
2021/07/27 01:14:51;;;;;;;75.83;42.30;;;17.20;99.90;;;;;;4370937;32;20166;-70
2021/07/27 01:17:18;;;;;;;88.20;45.50;;;17.20;99.90;;;;;;4363867;32;20153;-70
2021/07/27 01:19:53;;;;;;;73.37;41.40;;;17.10;99.90;;;;;;4362642;33;20164;-70
2021/07/27 01:39:26;;;;;;;75.03;42.10;;;17.20;99.90;;;;;;4303185;33;20474;-71
2021/07/27 01:42:07;;;;;;;85.07;41.97;;;17.20;99.90;;;;;;4301634;33;20237;-70
2021/07/27 01:44:35;;;;;;;72.27;41.47;;;17.10;99.90;;;;;;4301573;33;20158;-71
2021/07/27 01:47:02;;;;;;;82.40;44.37;;;17.10;99.90;;;;;;4301623;33;20173;-72
2021/07/27 01:49:29;;;;;;;112.93;49.60;;;17.00;99.90;;;;;;4301552;33;20633;-70
2021/07/27 01:51:56;;;;;;;125.47;49.80;;;17.00;99.90;;;;;;4301471;33;20237;-71
2021/07/27 01:54:30;;;;;;;87.53;44.60;;;16.90;99.90;;;;;;4301403;33;20158;-72
2021/07/27 01:56:57;;;;;;;141.07;53.83;;;16.80;99.90;;;;;;4301587;33;20596;-70
2021/07/27 01:59:24;;;;;;;121.70;51.70;;;16.80;99.90;;;;;;4298898;33;20237;-69
2021/07/27 02:01:51;;;;;;;73.73;41.47;;;16.80;99.90;;;;;;4305081;33;20234;-70
2021/07/27 02:04:17;;;;;;;92.07;46.10;;;16.70;99.90;;;;;;4302553;33;20257;-71
2021/07/27 02:06:45;;;;;;;121.00;51.87;;;16.70;99.90;;;;;;4320780;32;20186;-71
2021/07/27 02:09:14;;;;;;;81.57;45.03;;;16.70;99.90;;;;;;4368630;32;20235;-72
2021/07/27 02:11:45;;;;;;;78.00;43.37;;;16.70;99.90;;;;;;4362009;33;20156;-70
2021/07/27 02:14:13;;;;;;;81.97;43.53;;;16.70;99.90;;;;;;4361962;33;20160;-70
2021/07/27 02:16:40;;;;;;;65.03;40.10;;;16.60;99.90;;;;;;4361878;33;20163;-69
2021/07/27 02:19:07;;;;;;;73.30;41.23;;;16.60;99.90;;;;;;4361866;33;20211;-69
2021/07/27 02:21:34;;;;;;;80.57;44.30;;;16.60;99.90;;;;;;4363266;32;20160;-70
2021/07/27 02:24:02;;;;;;;70.70;41.23;;;16.60;99.90;;;;;;4361624;33;20216;-70
2021/07/27 02:26:30;;;;;;;84.13;44.77;;;16.70;99.90;;;;;;4361870;33;20210;-70
2021/07/27 02:28:58;;;;;;;75.67;42.80;;;16.70;99.90;;;;;;4361867;33;20244;-70
2021/07/27 02:31:31;;;;;;;90.87;47.60;;;16.70;99.90;;;;;;4362779;32;20156;-71
2021/07/27 02:33:58;;;;;;;75.27;43.37;;;16.60;99.90;;;;;;4361782;33;20133;-70
2021/07/27 02:36:25;;;;;;;86.40;47.30;;;16.60;99.90;;;;;;4361556;33;20160;-69
2021/07/27 02:38:52;;;;;;;79.20;45.53;;;16.60;99.90;;;;;;4363269;32;20159;-69
2021/07/27 02:41:33;;;;;;;81.87;45.50;;;16.60;99.90;;;;;;4361657;32;20142;-71
2021/07/27 02:44:02;;;;;;;84.27;43.17;;;16.60;99.90;;;;;;4361576;33;20538;-71
2021/07/27 02:46:29;;;;;;;81.03;43.90;;;16.50;99.90;;;;;;4361972;32;20159;-69
2021/07/27 02:49:03;;;;;;;83.87;48.10;;;16.50;99.90;;;;;;4362760;32;20525;-71
2021/07/27 02:51:30;;;;;;;91.63;48.23;;;16.60;99.90;;;;;;4361462;33;20161;-70
2021/07/27 02:53:57;;;;;;;117.80;53.63;;;16.60;99.90;;;;;;4361487;33;20140;-71
2021/07/27 02:56:25;;;;;;;85.10;47.67;;;16.60;99.90;;;;;;4361369;33;20171;-70
2021/07/27 02:58:52;;;;;;;98.67;47.77;;;16.60;99.90;;;;;;4361464;33;20165;-70
2021/07/27 03:01:20;;;;;;;130.67;56.27;;;16.60;99.90;;;;;;4361561;32;20468;-70
2021/07/27 03:03:49;;;;;;;97.07;49.53;;;16.50;99.90;;;;;;4360585;32;20164;-70
2021/07/27 03:06:16;;;;;;;116.17;54.67;;;16.50;99.90;;;;;;4361357;33;20163;-71
2021/07/27 03:08:48;;;;;;;120.70;55.90;;;16.50;99.90;;;;;;4362921;32;20216;-70
2021/07/27 03:11:16;;;;;;;131.77;58.77;;;16.50;99.90;;;;;;4360702;32;20133;-71
2021/07/27 03:13:43;;;;;;;143.23;60.23;;;16.50;99.90;;;;;;4361044;33;20145;-70
2021/07/27 03:16:15;;;;;;;134.13;60.53;;;16.60;99.90;;;;;;4361137;32;20159;-70
2021/07/27 03:18:44;;;;;;;157.47;67.77;;;16.60;99.90;;;;;;4361556;32;20164;-71
2021/07/27 03:21:11;;;;;;;174.47;68.23;;;16.60;99.90;;;;;;4361147;33;20168;-70
2021/07/27 03:23:38;;;;;;;177.53;68.43;;;16.60;99.90;;;;;;4360851;33;20172;-70
2021/07/27 03:26:05;;;;;;;156.23;68.33;;;16.50;99.90;;;;;;4361805;32;20169;-70
2021/07/27 03:28:31;;;;;;;142.30;65.07;;;16.50;99.90;;;;;;4361172;32;20620;-70
2021/07/27 03:30:59;;;;;;;170.37;68.80;;;16.50;99.90;;;;;;4362577;32;20165;-71
2021/07/27 03:33:26;;;;;;;180.77;71.20;;;16.40;99.90;;;;;;4360978;33;20125;-70
2021/07/27 03:35:54;;;;;;;184.63;73.30;;;16.40;99.90;;;;;;4360633;33;20190;-70
2021/07/27 03:38:21;;;;;;;171.50;69.93;;;16.30;99.90;;;;;;4360973;32;20168;-70
2021/07/27 03:40:47;;;;;;;176.23;73.50;;;16.30;99.90;;;;;;4361207;32;20141;-70
2021/07/27 03:43:14;;;;;;;211.40;77.83;;;16.30;99.90;;;;;;4360707;33;20168;-70
2021/07/27 03:45:41;;;;;;;152.07;67.27;;;16.30;99.90;;;;;;4362072;32;20195;-70
2021/07/27 03:48:08;;;;;;;170.50;73.47;;;16.30;99.90;;;;;;4360710;33;20137;-70
2021/07/27 03:50:35;;;;;;;183.70;76.40;;;16.30;99.90;;;;;;4360702;33;20224;-69
2021/07/27 03:53:03;;;;;;;173.00;72.07;;;16.30;99.90;;;;;;4361000;32;20480;-70
2021/07/27 03:55:30;;;;;;;167.97;72.87;;;16.40;99.90;;;;;;4360584;33;20246;-70
2021/07/27 03:57:57;;;;;;;184.03;74.47;;;16.40;99.90;;;;;;4358363;32;20167;-70
2021/07/27 04:00:24;;;;;;;180.53;73.37;;;16.40;99.90;;;;;;4371789;32;20523;-70
2021/07/27 04:02:50;;;;;;;171.83;73.73;;;16.50;99.90;;;;;;4375288;32;20176;-70
2021/07/27 04:05:17;;;;;;;185.77;78.83;;;16.50;99.90;;;;;;4375870;32;20223;-70
2021/07/27 04:07:44;;;;;;;252.97;87.50;;;16.50;99.90;;;;;;4375502;32;20132;-70
2021/07/27 04:10:13;;;;;;;192.90;80.70;;;16.50;99.90;;;;;;4374737;32;20238;-69
2021/07/27 04:12:40;;;;;;;204.23;82.67;;;16.50;99.90;;;;;;4377000;32;20137;-69
2021/07/27 04:15:08;;;;;;;153.63;74.43;;;16.60;99.90;;;;;;4375690;32;20502;-69
2021/07/27 04:17:35;;;;;;;221.53;83.50;;;16.60;99.90;;;;;;4376011;32;20207;-69
2021/07/27 04:20:01;;;;;;;158.93;72.70;;;16.50;99.90;;;;;;4375498;32;20472;-69
2021/07/27 04:22:28;;;;;;;202.07;80.07;;;16.50;99.90;;;;;;4379517;32;20152;-68
2021/07/27 04:24:57;;;;;;;261.43;91.63;;;16.50;99.90;;;;;;4378317;32;20136;-70
2021/07/27 04:27:25;;;;;;;150.80;71.57;;;16.50;99.90;;;;;;4379106;32;20199;-70
2021/07/27 04:29:52;;;;;;;142.27;68.43;;;16.50;99.90;;;;;;4378351;32;20228;-69
2021/07/27 04:32:19;;;;;;;265.13;87.77;;;16.60;99.90;;;;;;4380002;32;20140;-70
2021/07/27 04:34:46;;;;;;;141.27;69.47;;;16.60;99.90;;;;;;4379008;32;20239;-69
2021/07/27 04:37:12;;;;;;;178.23;75.23;;;16.60;99.90;;;;;;4378130;32;20473;-69
2021/07/27 04:39:40;;;;;;;128.20;64.90;;;16.70;99.90;;;;;;4378224;32;20153;-68
2021/07/27 04:42:07;;;;;;;137.83;65.13;;;16.80;99.90;;;;;;4378214;32;20168;-69
2021/07/27 04:44:36;;;;;;;146.10;67.40;;;16.80;99.90;;;;;;4378088;32;20243;-68
2021/07/27 04:47:04;;;;;;;126.17;65.50;;;16.90;99.90;;;;;;4379624;32;20152;-69
2021/07/27 04:49:31;;;;;;;117.53;59.67;;;17.00;99.90;;;;;;4379078;32;20176;-69
2021/07/27 04:51:59;;;;;;;141.50;68.20;;;17.00;99.90;;;;;;4378077;32;20160;-69
2021/07/27 04:54:30;;;;;;;141.40;65.63;;;17.00;99.90;;;;;;4377928;32;20159;-69
2021/07/27 04:57:00;;;;;;;128.83;63.07;;;17.10;99.90;;;;;;4378091;32;20148;-69
2021/07/27 04:59:27;;;;;;;113.67;59.40;;;17.20;99.90;;;;;;4378132;32;20191;-69
2021/07/27 05:01:55;;;;;;;128.00;62.10;;;17.30;99.90;;;;;;4378584;32;20216;-68
2021/07/27 05:04:26;;;;;;;106.07;56.03;;;17.20;99.90;;;;;;4377819;32;20163;-68
2021/07/27 05:06:52;;;;;;;103.03;54.80;;;17.30;99.90;;;;;;4379000;32;20189;-69
2021/07/27 05:09:19;;;;;;;96.50;54.13;;;17.30;99.90;;;;;;4377863;32;20572;-69
2021/07/27 05:11:46;;;;;;;101.00;53.77;;;17.30;99.90;;;;;;4378979;32;20183;-68
2021/07/27 05:14:13;;;;;;;100.77;53.03;;;17.40;99.90;;;;;;4378530;32;20152;-69
2021/07/27 05:16:40;;;;;;;107.10;56.60;;;17.40;99.90;;;;;;4378263;32;20159;-68
2021/07/27 05:19:24;;;;;;;95.37;50.57;;;17.40;99.90;;;;;;4377734;32;20156;-68
2021/07/27 05:21:53;;;;;;;107.33;53.37;;;17.30;99.90;;;;;;4377629;32;20243;-69
2021/07/27 05:24:20;;;;;;;92.67;49.33;;;17.30;99.90;;;;;;4377257;32;20490;-69
2021/07/27 05:26:47;;;;;;;92.53;50.73;;;17.30;99.90;;;;;;4377655;32;20136;-69
2021/07/27 05:29:14;;;;;;;80.93;46.83;;;17.40;99.90;;;;;;4378159;32;20160;-68
2021/07/27 05:31:41;;;;;;;76.87;46.90;;;17.40;99.90;;;;;;4378229;32;20152;-68
2021/07/27 05:34:08;;;;;;;72.83;44.43;;;17.50;99.90;;;;;;4376918;32;20155;-69
2021/07/27 05:36:36;;;;;;;82.33;47.67;;;17.60;99.90;;;;;;4377436;32;20136;-69
2021/07/27 05:39:04;;;;;;;64.90;39.90;;;17.60;99.90;;;;;;4377380;32;20140;-67
2021/07/27 05:41:30;;;;;;;60.53;38.03;;;17.60;99.90;;;;;;4377266;32;20422;-67
2021/07/27 05:43:59;;;;;;;54.60;36.47;;;17.60;99.90;;;;;;4377815;32;20215;-68
2021/07/27 05:46:25;;;;;;;65.50;39.43;;;17.70;99.90;;;;;;4377414;32;20159;-66
2021/07/27 05:48:53;;;;;;;50.20;34.93;;;17.80;99.90;;;;;;4377244;32;20192;-69
2021/07/27 05:51:21;;;;;;;53.73;35.17;;;17.80;99.90;;;;;;4377439;32;20136;-68
2021/07/27 05:53:49;;;;;;;55.33;35.83;;;17.90;99.90;;;;;;4377945;32;20545;-68
2021/07/27 05:56:16;;;;;;;53.23;35.43;;;17.90;99.90;;;;;;4377177;32;20162;-67
2021/07/27 05:58:43;;;;;;;51.03;34.40;;;17.90;99.90;;;;;;4377036;32;20179;-67
2021/07/27 06:01:10;;;;;;;58.83;37.60;;;17.90;99.90;;;;;;4377057;32;20179;-67
2021/07/27 06:03:37;;;;;;;48.10;31.97;;;17.90;99.90;;;;;;4376858;32;20140;-67
2021/07/27 06:06:03;;;;;;;53.03;33.83;;;18.10;99.90;;;;;;4377228;32;20626;-67
2021/07/27 06:08:30;;;;;;;53.73;32.53;;;18.30;99.90;;;;;;4377933;32;20145;-67
2021/07/27 06:10:59;;;;;;;44.23;29.67;;;18.50;99.90;;;;;;4378279;32;20141;-69
2021/07/27 06:13:25;;;;;;;46.50;31.07;;;18.80;99.90;;;;;;4377318;32;20219;-68
2021/07/27 06:15:52;;;;;;;46.57;31.30;;;19.00;99.90;;;;;;4376758;32;20194;-68
2021/07/27 06:18:19;;;;;;;45.00;29.40;;;19.10;99.90;;;;;;4376927;32;20568;-69
2021/07/27 06:20:46;;;;;;;46.60;32.20;;;19.30;99.90;;;;;;4376821;32;20151;-66
2021/07/27 06:23:12;;;;;;;42.33;29.67;;;19.20;99.90;;;;;;4377072;32;20211;-68
2021/07/27 06:25:39;;;;;;;39.47;31.07;;;19.10;99.90;;;;;;4376928;32;20144;-69
2021/07/27 06:28:08;;;;;;;44.10;29.23;;;19.00;99.90;;;;;;4376690;32;20204;-67
2021/07/27 06:30:35;;;;;;;40.83;29.40;;;19.00;99.90;;;;;;4376444;32;20149;-67
2021/07/27 06:33:02;;;;;;;47.83;31.10;;;19.00;99.90;;;;;;4376631;32;20475;-67
2021/07/27 06:35:29;;;;;;;47.70;29.90;;;19.00;99.90;;;;;;4377024;32;20141;-67
2021/07/27 06:37:56;;;;;;;42.10;30.60;;;18.90;99.90;;;;;;4376964;32;20564;-67
2021/07/27 06:40:23;;;;;;;45.03;30.07;;;18.80;99.90;;;;;;4376618;32;20175;-69
2021/07/27 06:42:49;;;;;;;39.20;28.77;;;18.80;99.90;;;;;;4376369;32;20162;-66
2021/07/27 06:45:18;;;;;;;46.87;30.83;;;18.80;99.90;;;;;;4376285;32;20159;-66
2021/07/27 06:47:45;;;;;;;41.40;30.40;;;18.80;99.90;;;;;;4378170;32;20148;-67
2021/07/27 06:50:12;;;;;;;43.53;28.20;;;19.00;99.90;;;;;;4377285;32;20136;-67
2021/07/27 06:52:39;;;;;;;41.50;30.97;;;19.10;99.90;;;;;;4376277;32;20218;-66
2021/07/27 06:55:07;;;;;;;39.40;28.77;;;19.30;99.90;;;;;;4376550;32;20168;-66
2021/07/27 06:57:34;;;;;;;45.53;28.77;;;19.70;99.90;;;;;;4376280;32;20136;-67
2021/07/27 07:00:00;;;;;;;46.40;28.40;;;20.10;99.90;;;;;;4375705;32;20195;-67
2021/07/27 07:02:30;;;;;;;43.53;28.60;;;20.30;99.90;;;;;;4377764;32;20174;-68
2021/07/27 07:04:57;;;;;;;35.77;26.60;;;20.10;99.90;;;;;;4375918;32;20441;-67
2021/07/27 07:07:24;;;;;;;41.97;28.43;;;20.20;99.90;;;;;;4376248;32;20141;-67
2021/07/27 07:09:51;;;;;;;40.77;27.87;;;20.40;99.90;;;;;;4376020;32;20560;-68
2021/07/27 07:12:18;;;;;;;37.80;27.27;;;20.70;99.90;;;;;;4376192;32;20163;-66
2021/07/27 07:14:45;;;;;;;37.90;26.07;;;20.80;99.90;;;;;;4375895;32;20190;-67
2021/07/27 07:17:12;;;;;;;39.33;27.70;;;20.70;99.90;;;;;;4376629;32;20137;-67
2021/07/27 07:19:40;;;;;;;36.63;25.67;;;20.40;99.90;;;;;;4376634;32;20152;-67
2021/07/27 07:22:08;;;;;;;39.00;28.23;;;20.00;99.90;;;;;;4375876;32;20144;-67
2021/07/27 07:24:35;;;;;;;42.93;28.67;;;19.80;99.90;;;;;;4375616;32;20235;-68
2021/07/27 07:27:02;;;;;;;38.93;29.83;;;19.60;99.90;;;;;;4375810;32;20172;-67
2021/07/27 07:29:29;;;;;;;36.97;26.90;;;19.50;99.90;;;;;;4375665;32;20152;-66
2021/07/27 07:31:56;;;;;;;43.37;29.37;;;19.40;99.90;;;;;;4376888;32;20215;-68
2021/07/27 07:34:23;;;;;;;39.93;28.33;;;19.40;99.90;;;;;;4375701;32;20455;-68
2021/07/27 07:36:51;;;;;;;39.90;28.73;;;19.30;99.90;;;;;;4377447;32;20639;-66
2021/07/27 07:39:18;;;;;;;47.10;30.40;;;19.40;99.90;;;;;;4375510;32;20154;-67
2021/07/27 07:41:45;;;;;;;40.07;26.87;;;19.50;99.90;;;;;;4375772;32;20228;-66
2021/07/27 07:44:12;;;;;;;40.90;28.70;;;19.50;99.90;;;;;;4375188;32;20162;-67
2021/07/27 07:46:39;;;;;;;40.60;28.37;;;19.60;99.90;;;;;;4375593;32;20175;-67
2021/07/27 07:49:06;;;;;;;40.23;29.20;;;19.80;99.90;;;;;;4375389;32;20556;-66
2021/07/27 07:51:33;;;;;;;39.67;29.37;;;19.90;99.90;;;;;;4376089;32;20243;-68
2021/07/27 07:54:02;;;;;;;37.30;28.17;;;19.80;99.90;;;;;;4375598;32;20208;-67
2021/07/27 07:56:29;;;;;;;40.20;29.30;;;19.80;99.90;;;;;;4375135;32;20148;-67
2021/07/27 07:58:56;;;;;;;38.13;26.70;;;19.80;99.90;;;;;;4376079;32;20160;-66
2021/07/27 08:01:23;;;;;;;34.47;26.90;;;20.20;99.90;;;;;;4376021;32;20251;-67
2021/07/27 08:03:49;;;;;;;37.00;26.20;;;20.50;99.90;;;;;;4375390;32;20144;-67
2021/07/27 08:06:16;;;;;;;36.03;26.50;;;20.60;99.90;;;;;;4377053;32;20171;-66
2021/07/27 08:08:43;;;;;;;39.63;27.63;;;20.60;99.90;;;;;;4375376;32;20560;-65
2021/07/27 08:11:11;;;;;;;38.07;26.37;;;20.70;99.90;;;;;;4375765;32;20155;-66
2021/07/27 08:13:38;;;;;;;41.67;28.00;;;21.00;99.90;;;;;;4375509;32;20160;-65
2021/07/27 08:16:09;;;;;;;37.07;27.87;;;21.20;99.90;;;;;;4376202;32;20155;-68
2021/07/27 08:18:36;;;;;;;36.73;26.47;;;21.50;99.90;;;;;;4375922;32;20601;-66
2021/07/27 08:21:03;;;;;;;38.80;28.50;;;22.10;99.90;;;;;;4375319;32;20171;-67
2021/07/27 08:23:30;;;;;;;35.80;25.97;;;22.20;99.90;;;;;;4375608;32;20219;-67
2021/07/27 08:25:56;;;;;;;40.67;29.27;;;23.30;99.90;;;;;;4375235;32;20136;-66
2021/07/27 08:28:25;;;;;;;40.10;27.43;;;23.60;99.90;;;;;;4364465;32;20149;-67
2021/07/27 08:30:52;;;;;;;33.30;26.13;;;23.40;99.90;;;;;;4362416;32;20235;-67
2021/07/27 08:33:37;;;;;;;35.67;29.17;;;23.60;99.90;;;;;;4362013;32;20149;-66
2021/07/27 08:36:14;;;;;;;37.47;30.03;;;23.70;99.90;;;;;;4348623;32;20232;-68
2021/07/27 08:39:11;;;;;;;33.77;29.27;;;23.40;99.90;;;;;;4359853;32;20231;-67
2021/07/27 08:41:41;;;;;;;38.83;29.17;;;24.40;99.90;;;;;;4357919;32;20673;-66
2021/07/27 08:44:21;;;;;;;37.07;28.67;;;23.80;99.90;;;;;;4361513;32;20212;-67
2021/07/27 08:46:48;;;;;;;39.83;31.60;;;23.00;99.90;;;;;;4360235;32;20231;-66
2021/07/27 08:49:15;;;;;;;46.87;33.10;;;22.40;99.90;;;;;;4360384;32;22458;-66
2021/07/27 08:51:47;;;;;;;40.40;29.73;;;21.90;99.90;;;;;;4361146;32;20269;-67
2021/07/27 08:54:17;;;;;;;40.20;32.73;;;21.60;99.90;;;;;;4362420;32;20217;-66
2021/07/27 08:56:47;;;;;;;40.47;31.30;;;21.10;99.90;;;;;;4364809;32;20148;-66
2021/07/27 08:59:14;;;;;;;42.47;31.13;;;20.90;99.90;;;;;;4367772;32;20231;-67
2021/07/27 09:01:42;;;;;;;41.20;30.17;;;21.10;99.90;;;;;;4366380;32;20232;-66
2021/07/27 09:04:09;;;;;;;41.63;32.43;;;21.20;99.90;;;;;;4360072;33;20159;-66
2021/07/27 09:06:37;;;;;;;38.63;30.27;;;21.20;99.90;;;;;;4359824;33;20216;-66
2021/07/27 09:09:05;;;;;;;38.97;30.70;;;21.30;99.90;;;;;;4361404;32;20145;-66
2021/07/27 09:11:32;;;;;;;36.83;31.07;;;21.40;99.90;;;;;;4363975;32;20149;-66
2021/07/27 09:13:59;;;;;;;35.43;28.80;;;21.50;99.90;;;;;;4364244;32;20163;-67
2021/07/27 09:16:26;;;;;;;39.77;31.83;;;21.40;99.90;;;;;;4364057;32;20204;-66
2021/07/27 09:19:01;;;;;;;43.00;32.63;;;21.30;99.90;;;;;;4362455;33;20481;-66
2021/07/27 09:21:29;;;;;;;36.30;30.43;;;21.10;99.90;;;;;;4362717;33;20220;-66
2021/07/27 09:23:55;;;;;;;39.97;30.17;;;21.00;99.90;;;;;;4363257;32;20144;-66
2021/07/27 09:26:22;;;;;;;40.63;32.37;;;20.90;99.90;;;;;;4362561;32;20188;-65
2021/07/27 09:28:49;;;;;;;35.90;29.53;;;20.80;99.90;;;;;;4364226;32;20232;-66
2021/07/27 09:31:26;;;;;;;37.97;31.33;;;20.70;99.90;;;;;;4362537;33;20183;-65
2021/07/27 09:33:53;;;;;;;40.70;33.83;;;20.50;99.90;;;;;;4364367;32;20175;-66
2021/07/27 09:36:25;;;;;;;39.17;32.67;;;20.30;99.90;;;;;;4363163;32;20145;-66
2021/07/27 09:39:02;;;;;;;36.27;29.47;;;20.20;99.90;;;;;;4362276;33;20176;-65
2021/07/27 09:41:30;;;;;;;41.53;31.23;;;20.30;99.90;;;;;;4362613;32;20433;-66
2021/07/27 09:44:00;;;;;;;39.40;32.00;;;20.40;99.90;;;;;;4362411;33;20145;-65
2021/07/27 09:46:28;;;;;;;37.40;29.83;;;20.40;99.90;;;;;;4362171;33;20159;-67
2021/07/27 09:48:55;;;;;;;40.00;29.83;;;20.40;99.90;;;;;;4363982;32;20203;-67
2021/07/27 09:51:23;;;;;;;41.63;31.00;;;20.30;99.90;;;;;;4362518;32;20160;-66
2021/07/27 09:53:50;;;;;;;38.97;31.33;;;20.30;99.90;;;;;;4362212;33;20137;-65
2021/07/27 09:56:17;;;;;;;40.93;29.53;;;20.30;99.90;;;;;;4362671;32;20137;-67
2021/07/27 09:58:44;;;;;;;37.93;30.17;;;20.30;99.90;;;;;;4299405;32;2110435;-66
2021/07/27 10:01:14;;;;;;;35.57;28.10;;;20.50;99.90;;;;;;4362104;32;20153;-66
2021/07/27 10:03:50;;;;;;;36.17;30.03;;;20.70;99.90;;;;;;4362565;32;20172;-66
2021/07/27 10:06:25;;;;;;;42.20;31.87;;;20.70;99.90;;;;;;4362422;32;20176;-65
2021/07/27 10:08:56;;;;;;;34.70;27.57;;;20.70;99.90;;;;;;4361870;33;20152;-65
2021/07/27 10:11:36;;;;;;;36.80;29.57;;;20.50;99.90;;;;;;4362077;32;20202;-66
2021/07/27 10:14:09;;;;;;;40.53;32.30;;;20.30;99.90;;;;;;4363604;32;20184;-65
2021/07/27 10:16:36;;;;;;;43.53;32.90;;;20.20;99.90;;;;;;4363269;32;20179;-66
2021/07/27 10:19:23;;;;;;;42.77;34.80;;;20.10;99.90;;;;;;4361453;32;20226;-65
2021/07/27 10:22:03;;;;;;;39.70;32.17;;;20.20;99.90;;;;;;4362293;32;20152;-65
2021/07/27 10:24:36;;;;;;;36.43;29.67;;;20.60;99.90;;;;;;4361703;33;20152;-64
2021/07/27 10:27:07;;;;;;;30.20;25.73;;;20.90;99.90;;;;;;4361538;33;20219;-65
2021/07/27 10:29:34;;;;;;;30.03;25.10;;;21.10;99.90;;;;;;4362073;32;20157;-64
2021/07/27 10:32:12;;;;;;;28.30;24.73;;;20.90;99.90;;;;;;4361726;33;20160;-65
2021/07/27 10:34:41;;;;;;;24.57;21.80;;;20.60;99.90;;;;;;4361894;32;20170;-65
2021/07/27 10:37:10;;;;;;;22.10;19.30;;;20.30;99.90;;;;;;4361570;32;20149;-66
2021/07/27 10:39:48;;;;;;;20.63;16.40;;;20.20;99.90;;;;;;4361640;33;20161;-66
2021/07/27 10:42:16;;;;;;;20.03;16.37;;;20.10;99.90;;;;;;4361539;33;20145;-67
2021/07/27 10:44:43;;;;;;;23.40;19.17;;;19.80;99.90;;;;;;4361800;32;20184;-64
2021/07/27 10:47:19;;;;;;;20.90;18.03;;;19.40;99.90;;;;;;4362014;32;20157;-64
2021/07/27 10:49:46;;;;;;;29.90;21.97;;;19.10;99.90;;;;;;4361356;33;20145;-64
2021/07/27 10:52:16;;;;;;;28.90;21.60;;;18.90;99.90;;;;;;4361793;32;20231;-64
2021/07/27 10:54:45;;;;;;;24.90;20.53;;;18.70;99.90;;;;;;4361809;32;20204;-65
2021/07/27 10:57:15;;;;;;;22.53;18.67;;;18.60;99.90;;;;;;4361420;33;20607;-63
2021/07/27 10:59:48;;;;;;;23.57;19.43;;;18.60;99.90;;;;;;4361401;33;20171;-64
2021/07/27 11:02:15;;;;;;;26.83;19.30;;;18.80;99.90;;;;;;4362886;32;20204;-64
2021/07/27 11:04:41;;;;;;;23.43;19.23;;;18.90;99.90;;;;;;4360738;33;20157;-65
2021/07/27 11:07:14;;;;;;;21.30;18.07;;;18.90;99.90;;;;;;4361242;33;20166;-64
2021/07/27 11:09:51;;;;;;;21.33;17.00;;;18.80;99.90;;;;;;4361137;33;20164;-64
2021/07/27 11:12:29;;;;;;;20.90;16.47;;;18.80;99.90;;;;;;4362850;32;20164;-65
2021/07/27 11:15:10;;;;;;;19.90;16.00;;;18.80;99.90;;;;;;4361069;32;20167;-64
2021/07/27 11:17:37;;;;;;;22.03;17.60;;;18.70;99.90;;;;;;4361421;32;20168;-66
2021/07/27 11:20:06;;;;;;;20.90;17.43;;;18.70;99.90;;;;;;4361251;32;20266;-65
2021/07/27 11:22:34;;;;;;;25.30;18.00;;;18.50;99.90;;;;;;4360935;33;20152;-65
2021/07/27 11:25:02;;;;;;;22.30;15.53;;;18.50;99.90;;;;;;4360832;33;20141;-66
2021/07/27 11:27:29;;;;;;;19.97;15.60;;;18.40;99.90;;;;;;4360804;33;20168;-66
2021/07/27 11:29:58;;;;;;;19.13;13.23;;;18.30;99.90;;;;;;4360922;33;20153;-65
2021/07/27 11:32:29;;;;;;;18.57;13.17;;;18.20;99.90;;;;;;4360718;33;20152;-66
2021/07/27 11:34:59;;;;;;;21.27;13.57;;;18.10;99.90;;;;;;4361733;32;20171;-66
2021/07/27 11:37:26;;;;;;;18.00;13.73;;;18.00;99.90;;;;;;4360847;33;20194;-66
2021/07/27 11:39:55;;;;;;;18.20;13.17;;;18.00;99.90;;;;;;4360701;33;20209;-66
2021/07/27 11:42:29;;;;;;;17.33;12.43;;;18.00;99.90;;;;;;4362306;32;20148;-66
2021/07/27 11:44:57;;;;;;;18.10;14.63;;;18.10;99.90;;;;;;4361548;32;20145;-66
2021/07/27 11:47:24;;;;;;;18.70;13.90;;;18.20;99.90;;;;;;4360752;33;20184;-67
2021/07/27 11:49:57;;;;;;;19.07;14.53;;;18.30;99.90;;;;;;4360760;33;20176;-65
2021/07/27 11:52:28;;;;;;;21.40;14.63;;;18.50;99.90;;;;;;4360580;33;20215;-67
2021/07/27 11:55:04;;;;;;;17.27;15.03;;;18.70;99.90;;;;;;4362040;32;20184;-66
2021/07/27 11:57:31;;;;;;;14.87;11.47;;;19.00;99.90;;;;;;4360684;33;20208;-65
2021/07/27 12:00:11;;;;;;;16.23;11.80;;;19.10;99.90;;;;;;4360348;33;20177;-66
2021/07/27 12:02:39;;;;;;;14.13;10.90;;;19.20;99.90;;;;;;4360523;33;20172;-68
2021/07/27 12:05:06;;;;;;;12.57;9.80;;;19.50;99.90;;;;;;4362150;32;20575;-68
2021/07/27 12:07:33;;;;;;;11.27;8.93;;;20.00;99.90;;;;;;4360607;33;20210;-66
2021/07/27 12:10:00;;;;;;;9.37;7.90;;;20.70;99.90;;;;;;4361635;32;20512;-66
2021/07/27 12:12:28;;;;;;;7.77;6.67;;;21.40;99.90;;;;;;4360513;33;20167;-66
2021/07/27 12:14:55;;;;;;;7.40;6.23;;;21.90;99.90;;;;;;4362149;33;20220;-66
2021/07/27 12:17:22;;;;;;;5.97;5.37;;;22.20;99.90;;;;;;4360901;33;20173;-67
2021/07/27 12:19:49;;;;;;;6.77;5.43;;;22.30;99.90;;;;;;4360269;33;20168;-66
2021/07/27 12:22:16;;;;;;;8.30;6.07;;;22.10;99.90;;;;;;4360627;33;20488;-66
2021/07/27 12:24:43;;;;;;;7.47;6.30;;;21.90;99.90;;;;;;4360522;33;20175;-67
2021/07/27 12:27:10;;;;;;;8.43;5.77;;;21.60;99.90;;;;;;4360224;33;20607;-66
2021/07/27 12:29:38;;;;;;;9.47;6.77;;;21.60;99.90;;;;;;4362035;33;20213;-66
2021/07/27 12:32:06;;;;;;;8.53;7.10;;;21.70;99.90;;;;;;4360759;33;20248;-67
2021/07/27 12:34:34;;;;;;;8.70;7.60;;;21.70;99.90;;;;;;4360387;33;20153;-66
2021/07/27 12:37:00;;;;;;;10.80;7.60;;;21.70;99.90;;;;;;4360167;33;20167;-67
2021/07/27 12:39:27;;;;;;;12.00;8.43;;;21.80;99.90;;;;;;4360085;33;20207;-66
2021/07/27 12:41:54;;;;;;;9.10;8.17;;;21.90;99.90;;;;;;4360615;32;20196;-66
2021/07/27 12:44:22;;;;;;;10.87;8.27;;;22.20;99.90;;;;;;4363332;33;20167;-67
2021/07/27 12:46:50;;;;;;;13.60;7.87;;;22.20;99.90;;;;;;4363040;33;20149;-67
2021/07/27 12:49:17;;;;;;;11.40;7.37;;;22.20;99.90;;;;;;4363782;32;20195;-66